sensor_id;sensor_type;location;lat;lon;timestamp;pressure;altitude;pressure_sealevel;temperature;humidity
40372;BME280;28564;53.346;-6.554;2024-02-23T00:00:53;97377.54;;;5.32;51.75
40372;BME280;28564;53.346;-6.554;2024-02-23T00:03:20;97375.83;;;5.38;51.75
40372;BME280;28564;53.346;-6.554;2024-02-23T00:05:48;97370.26;;;5.40;51.68
40372;BME280;28564;53.346;-6.554;2024-02-23T00:08:15;97374.43;;;5.40;51.89
40372;BME280;28564;53.346;-6.554;2024-02-23T00:10:42;97375.11;;;5.48;51.87
40372;BME280;28564;53.346;-6.554;2024-02-23T00:13:10;97373.77;;;5.55;51.78
40372;BME280;28564;53.346;-6.554;2024-02-23T00:15:37;97375.42;;;5.69;51.56
40372;BME280;28564;53.346;-6.554;2024-02-23T00:18:05;97379.51;;;5.76;51.42
40372;BME280;28564;53.346;-6.554;2024-02-23T00:20:32;97377.52;;;5.65;51.35
40372;BME280;28564;53.346;-6.554;2024-02-23T00:22:59;97388.74;;;5.74;51.10
40372;BME280;28564;53.346;-6.554;2024-02-23T00:25:26;97393.16;;;6.09;50.88
40372;BME280;28564;53.346;-6.554;2024-02-23T00:27:54;97398.14;;;5.88;50.93
40372;BME280;28564;53.346;-6.554;2024-02-23T00:30:21;97402.24;;;6.25;50.82
40372;BME280;28564;53.346;-6.554;2024-02-23T00:32:49;97406.42;;;6.09;50.88
40372;BME280;28564;53.346;-6.554;2024-02-23T00:35:16;97419.39;;;6.05;51.26
40372;BME280;28564;53.346;-6.554;2024-02-23T00:37:43;97415.41;;;5.91;52.09
40372;BME280;28564;53.346;-6.554;2024-02-23T00:40:11;97410.67;;;5.73;52.74
40372;BME280;28564;53.346;-6.554;2024-02-23T00:42:39;97418.77;;;5.88;53.52
40372;BME280;28564;53.346;-6.554;2024-02-23T00:45:07;97420.03;;;5.87;53.77
40372;BME280;28564;53.346;-6.554;2024-02-23T00:47:34;97403.87;;;5.81;53.54
40372;BME280;28564;53.346;-6.554;2024-02-23T00:50:02;97399.51;;;5.67;53.77
40372;BME280;28564;53.346;-6.554;2024-02-23T00:52:30;97400.72;;;5.56;54.05
40372;BME280;28564;53.346;-6.554;2024-02-23T00:54:57;97395.71;;;5.34;54.09
40372;BME280;28564;53.346;-6.554;2024-02-23T00:57:24;97398.38;;;5.62;54.49
40372;BME280;28564;53.346;-6.554;2024-02-23T00:59:52;97399.58;;;5.68;54.71
40372;BME280;28564;53.346;-6.554;2024-02-23T01:02:19;97408.02;;;5.82;54.55
40372;BME280;28564;53.346;-6.554;2024-02-23T01:04:46;97408.36;;;5.94;54.50
40372;BME280;28564;53.346;-6.554;2024-02-23T01:07:14;97412.14;;;5.72;54.38
40372;BME280;28564;53.346;-6.554;2024-02-23T01:09:41;97409.52;;;5.76;54.68
40372;BME280;28564;53.346;-6.554;2024-02-23T01:12:09;97408.39;;;5.78;54.62
40372;BME280;28564;53.346;-6.554;2024-02-23T01:14:36;97403.64;;;5.82;54.98
40372;BME280;28564;53.346;-6.554;2024-02-23T01:17:03;97401.79;;;5.82;54.82
40372;BME280;28564;53.346;-6.554;2024-02-23T01:19:31;97392.32;;;6.14;54.60
40372;BME280;28564;53.346;-6.554;2024-02-23T01:21:58;97393.86;;;5.80;54.50
40372;BME280;28564;53.346;-6.554;2024-02-23T01:24:25;97390.82;;;5.83;54.40
40372;BME280;28564;53.346;-6.554;2024-02-23T01:26:53;97396.40;;;5.76;54.53
40372;BME280;28564;53.346;-6.554;2024-02-23T01:29:20;97389.98;;;5.97;54.41
40372;BME280;28564;53.346;-6.554;2024-02-23T01:31:47;97389.39;;;5.93;54.52
40372;BME280;28564;53.346;-6.554;2024-02-23T01:34:15;97390.24;;;5.94;54.35
40372;BME280;28564;53.346;-6.554;2024-02-23T01:36:42;97386.22;;;5.63;54.07
40372;BME280;28564;53.346;-6.554;2024-02-23T01:39:10;97384.73;;;5.47;54.18
40372;BME280;28564;53.346;-6.554;2024-02-23T01:41:37;97387.84;;;5.63;54.26
40372;BME280;28564;53.346;-6.554;2024-02-23T01:44:05;97385.37;;;5.56;54.36
40372;BME280;28564;53.346;-6.554;2024-02-23T01:46:32;97375.92;;;5.45;54.55
40372;BME280;28564;53.346;-6.554;2024-02-23T01:49:00;97378.99;;;5.43;54.65
40372;BME280;28564;53.346;-6.554;2024-02-23T01:51:28;97373.86;;;5.44;54.73
40372;BME280;28564;53.346;-6.554;2024-02-23T01:53:56;97370.25;;;5.67;54.84
40372;BME280;28564;53.346;-6.554;2024-02-23T01:56:23;97369.96;;;5.44;54.89
40372;BME280;28564;53.346;-6.554;2024-02-23T01:58:50;97362.11;;;5.22;55.01
40372;BME280;28564;53.346;-6.554;2024-02-23T02:01:19;97354.59;;;5.28;54.72
40372;BME280;28564;53.346;-6.554;2024-02-23T02:03:46;97345.89;;;5.31;54.62
40372;BME280;28564;53.346;-6.554;2024-02-23T02:06:14;97344.08;;;5.62;54.39
40372;BME280;28564;53.346;-6.554;2024-02-23T02:08:41;97346.07;;;5.35;54.17
40372;BME280;28564;53.346;-6.554;2024-02-23T02:11:08;97353.03;;;5.34;54.14
40372;BME280;28564;53.346;-6.554;2024-02-23T02:13:36;97356.18;;;5.56;54.16
40372;BME280;28564;53.346;-6.554;2024-02-23T02:16:03;97359.02;;;5.53;54.11
40372;BME280;28564;53.346;-6.554;2024-02-23T02:18:31;97355.92;;;5.49;54.14
40372;BME280;28564;53.346;-6.554;2024-02-23T02:20:58;97370.65;;;5.46;54.23
40372;BME280;28564;53.346;-6.554;2024-02-23T02:23:25;97363.32;;;5.15;54.33
40372;BME280;28564;53.346;-6.554;2024-02-23T02:25:53;97366.92;;;5.43;54.37
40372;BME280;28564;53.346;-6.554;2024-02-23T02:28:20;97369.10;;;5.42;54.48
40372;BME280;28564;53.346;-6.554;2024-02-23T02:30:48;97368.43;;;5.44;54.53
40372;BME280;28564;53.346;-6.554;2024-02-23T02:33:16;97369.25;;;5.47;54.61
40372;BME280;28564;53.346;-6.554;2024-02-23T02:35:43;97373.45;;;5.52;54.53
40372;BME280;28564;53.346;-6.554;2024-02-23T02:38:11;97374.32;;;5.59;54.42
40372;BME280;28564;53.346;-6.554;2024-02-23T02:40:39;97380.27;;;5.59;54.32
40372;BME280;28564;53.346;-6.554;2024-02-23T02:43:07;97374.95;;;5.58;54.28
40372;BME280;28564;53.346;-6.554;2024-02-23T02:45:34;97389.79;;;5.31;54.28
40372;BME280;28564;53.346;-6.554;2024-02-23T02:48:02;97391.28;;;5.60;54.21
40372;BME280;28564;53.346;-6.554;2024-02-23T02:50:29;97388.36;;;5.59;54.23
40372;BME280;28564;53.346;-6.554;2024-02-23T02:52:56;97385.57;;;5.58;54.27
40372;BME280;28564;53.346;-6.554;2024-02-23T02:55:24;97384.40;;;5.59;54.29
40372;BME280;28564;53.346;-6.554;2024-02-23T02:57:51;97384.26;;;5.82;54.19
40372;BME280;28564;53.346;-6.554;2024-02-23T03:00:19;97381.27;;;5.66;54.00
40372;BME280;28564;53.346;-6.554;2024-02-23T03:02:46;97388.75;;;5.63;54.06
40372;BME280;28564;53.346;-6.554;2024-02-23T03:05:13;97396.00;;;5.39;53.90
40372;BME280;28564;53.346;-6.554;2024-02-23T03:07:41;97395.58;;;5.63;53.74
40372;BME280;28564;53.346;-6.554;2024-02-23T03:10:08;97392.87;;;5.35;53.73
40372;BME280;28564;53.346;-6.554;2024-02-23T03:12:35;97389.29;;;5.62;53.68
40372;BME280;28564;53.346;-6.554;2024-02-23T03:15:04;97397.86;;;5.32;53.51
40372;BME280;28564;53.346;-6.554;2024-02-23T03:17:31;97390.37;;;5.56;53.40
40372;BME280;28564;53.346;-6.554;2024-02-23T03:19:59;97393.99;;;5.21;53.42
40372;BME280;28564;53.346;-6.554;2024-02-23T03:22:26;97396.57;;;5.49;53.29
40372;BME280;28564;53.346;-6.554;2024-02-23T03:24:53;97405.72;;;5.42;53.33
40372;BME280;28564;53.346;-6.554;2024-02-23T03:27:28;97401.67;;;5.37;53.37
40372;BME280;28564;53.346;-6.554;2024-02-23T03:29:56;97407.76;;;5.41;53.26
40372;BME280;28564;53.346;-6.554;2024-02-23T03:32:23;97407.81;;;5.42;53.13
40372;BME280;28564;53.346;-6.554;2024-02-23T03:34:51;97407.57;;;5.34;53.19
40372;BME280;28564;53.346;-6.554;2024-02-23T03:37:18;97409.93;;;5.35;53.23
40372;BME280;28564;53.346;-6.554;2024-02-23T03:39:45;97405.84;;;5.29;53.34
40372;BME280;28564;53.346;-6.554;2024-02-23T03:42:13;97402.94;;;5.23;53.38
40372;BME280;28564;53.346;-6.554;2024-02-23T03:44:40;97405.32;;;5.25;53.40
40372;BME280;28564;53.346;-6.554;2024-02-23T03:47:08;97401.26;;;5.24;53.41
40372;BME280;28564;53.346;-6.554;2024-02-23T03:49:35;97405.80;;;5.25;53.53
40372;BME280;28564;53.346;-6.554;2024-02-23T03:52:03;97400.65;;;5.29;53.26
40372;BME280;28564;53.346;-6.554;2024-02-23T03:54:31;97392.54;;;5.25;53.22
40372;BME280;28564;53.346;-6.554;2024-02-23T03:56:58;97389.98;;;5.48;53.20
40372;BME280;28564;53.346;-6.554;2024-02-23T03:59:25;97390.80;;;5.42;53.25
40372;BME280;28564;53.346;-6.554;2024-02-23T04:01:53;97387.35;;;5.20;53.21
40372;BME280;28564;53.346;-6.554;2024-02-23T04:04:20;97393.82;;;5.67;53.23
40372;BME280;28564;53.346;-6.554;2024-02-23T04:06:47;97393.59;;;5.65;53.24
40372;BME280;28564;53.346;-6.554;2024-02-23T04:09:15;97392.43;;;5.36;53.23
40372;BME280;28564;53.346;-6.554;2024-02-23T04:11:42;97394.79;;;5.13;53.24
40372;BME280;28564;53.346;-6.554;2024-02-23T04:14:10;97385.69;;;5.41;53.13
40372;BME280;28564;53.346;-6.554;2024-02-23T04:16:37;97393.67;;;5.10;53.22
40372;BME280;28564;53.346;-6.554;2024-02-23T04:19:04;97391.21;;;5.16;53.13
40372;BME280;28564;53.346;-6.554;2024-02-23T04:21:32;97385.45;;;5.39;53.09
40372;BME280;28564;53.346;-6.554;2024-02-23T04:23:59;97383.62;;;5.15;53.09
40372;BME280;28564;53.346;-6.554;2024-02-23T04:26:26;97376.53;;;5.19;53.00
40372;BME280;28564;53.346;-6.554;2024-02-23T04:28:54;97382.30;;;5.18;52.88
40372;BME280;28564;53.346;-6.554;2024-02-23T04:31:21;97379.13;;;5.19;52.76
40372;BME280;28564;53.346;-6.554;2024-02-23T04:33:49;97378.46;;;5.15;52.73
40372;BME280;28564;53.346;-6.554;2024-02-23T04:36:19;97382.65;;;5.13;52.73
40372;BME280;28564;53.346;-6.554;2024-02-23T04:38:47;97378.09;;;4.80;52.84
40372;BME280;28564;53.346;-6.554;2024-02-23T04:41:14;97377.63;;;5.04;52.76
40372;BME280;28564;53.346;-6.554;2024-02-23T04:43:46;97376.33;;;4.95;52.87
40372;BME280;28564;53.346;-6.554;2024-02-23T04:46:13;97382.22;;;4.98;52.83
40372;BME280;28564;53.346;-6.554;2024-02-23T04:48:41;97378.78;;;4.94;52.85
40372;BME280;28564;53.346;-6.554;2024-02-23T04:51:08;97373.26;;;4.88;52.91
40372;BME280;28564;53.346;-6.554;2024-02-23T04:53:36;97377.63;;;5.08;52.99
40372;BME280;28564;53.346;-6.554;2024-02-23T04:56:05;97379.26;;;4.83;53.00
40372;BME280;28564;53.346;-6.554;2024-02-23T04:58:32;97385.76;;;4.82;52.98
40372;BME280;28564;53.346;-6.554;2024-02-23T05:01:00;97389.76;;;5.04;52.93
40372;BME280;28564;53.346;-6.554;2024-02-23T05:03:27;97387.46;;;4.96;53.08
40372;BME280;28564;53.346;-6.554;2024-02-23T05:05:54;97388.82;;;5.19;53.04
40372;BME280;28564;53.346;-6.554;2024-02-23T05:08:22;97387.88;;;5.17;53.02
40372;BME280;28564;53.346;-6.554;2024-02-23T05:10:49;97387.18;;;4.92;53.12
40372;BME280;28564;53.346;-6.554;2024-02-23T05:13:16;97387.60;;;4.61;53.21
40372;BME280;28564;53.346;-6.554;2024-02-23T05:15:44;97392.20;;;5.16;53.17
40372;BME280;28564;53.346;-6.554;2024-02-23T05:18:11;97391.92;;;4.84;53.20
40372;BME280;28564;53.346;-6.554;2024-02-23T05:20:39;97399.17;;;4.59;53.26
40372;BME280;28564;53.346;-6.554;2024-02-23T05:23:06;97395.86;;;5.13;53.25
40372;BME280;28564;53.346;-6.554;2024-02-23T05:25:34;97393.90;;;5.09;53.28
40372;BME280;28564;53.346;-6.554;2024-02-23T05:28:01;97392.07;;;4.79;53.29
40372;BME280;28564;53.346;-6.554;2024-02-23T05:30:28;97392.00;;;5.10;53.18
40372;BME280;28564;53.346;-6.554;2024-02-23T05:32:56;97393.40;;;5.08;53.16
40372;BME280;28564;53.346;-6.554;2024-02-23T05:35:23;97397.71;;;4.80;53.20
40372;BME280;28564;53.346;-6.554;2024-02-23T05:37:50;97405.23;;;4.78;53.14
40372;BME280;28564;53.346;-6.554;2024-02-23T05:40:19;97408.02;;;4.98;53.24
40372;BME280;28564;53.346;-6.554;2024-02-23T05:42:46;97411.81;;;5.03;53.29
40372;BME280;28564;53.346;-6.554;2024-02-23T05:45:14;97411.44;;;4.71;53.30
40372;BME280;28564;53.346;-6.554;2024-02-23T05:47:41;97415.08;;;4.56;53.11
40372;BME280;28564;53.346;-6.554;2024-02-23T05:50:09;97413.63;;;4.64;52.91
40372;BME280;28564;53.346;-6.554;2024-02-23T05:52:36;97407.33;;;5.05;53.01
40372;BME280;28564;53.346;-6.554;2024-02-23T05:55:05;97404.28;;;4.78;52.99
40372;BME280;28564;53.346;-6.554;2024-02-23T05:57:32;97409.45;;;4.99;53.04
40372;BME280;28564;53.346;-6.554;2024-02-23T06:00:00;97412.64;;;4.98;52.99
40372;BME280;28564;53.346;-6.554;2024-02-23T06:02:27;97408.80;;;4.95;52.98
40372;BME280;28564;53.346;-6.554;2024-02-23T06:04:55;97409.06;;;4.93;52.98
40372;BME280;28564;53.346;-6.554;2024-02-23T06:07:22;97410.50;;;4.91;53.05
40372;BME280;28564;53.346;-6.554;2024-02-23T06:09:49;97408.71;;;4.67;52.99
40372;BME280;28564;53.346;-6.554;2024-02-23T06:12:17;97408.45;;;4.91;53.00
40372;BME280;28564;53.346;-6.554;2024-02-23T06:14:44;97410.37;;;4.62;53.00
40372;BME280;28564;53.346;-6.554;2024-02-23T06:17:12;97405.97;;;4.90;53.01
40372;BME280;28564;53.346;-6.554;2024-02-23T06:19:39;97418.31;;;4.83;53.10
40372;BME280;28564;53.346;-6.554;2024-02-23T06:22:06;97416.04;;;4.54;53.17
40372;BME280;28564;53.346;-6.554;2024-02-23T06:24:34;97417.70;;;4.83;53.13
40372;BME280;28564;53.346;-6.554;2024-02-23T06:27:02;97428.42;;;4.82;53.24
40372;BME280;28564;53.346;-6.554;2024-02-23T06:29:29;97427.53;;;4.76;53.34
40372;BME280;28564;53.346;-6.554;2024-02-23T06:31:56;97435.55;;;4.71;53.33
40372;BME280;28564;53.346;-6.554;2024-02-23T06:34:24;97430.55;;;4.77;53.66
40372;BME280;28564;53.346;-6.554;2024-02-23T06:36:51;97446.05;;;4.83;53.63
40372;BME280;28564;53.346;-6.554;2024-02-23T06:39:18;97444.30;;;4.38;53.60
40372;BME280;28564;53.346;-6.554;2024-02-23T06:41:46;97451.17;;;4.72;53.65
40372;BME280;28564;53.346;-6.554;2024-02-23T06:44:13;97454.16;;;4.78;53.65
40372;BME280;28564;53.346;-6.554;2024-02-23T06:46:41;97457.57;;;5.15;53.51
40372;BME280;28564;53.346;-6.554;2024-02-23T06:49:08;97454.83;;;5.27;53.58
40372;BME280;28564;53.346;-6.554;2024-02-23T06:51:35;97458.34;;;4.89;53.31
40372;BME280;28564;53.346;-6.554;2024-02-23T06:54:03;97461.46;;;4.99;52.97
40372;BME280;28564;53.346;-6.554;2024-02-23T06:56:30;97466.73;;;5.07;52.83
40372;BME280;28564;53.346;-6.554;2024-02-23T06:58:58;97470.36;;;5.09;52.76
40372;BME280;28564;53.346;-6.554;2024-02-23T07:01:25;97465.05;;;5.14;52.84
40372;BME280;28564;53.346;-6.554;2024-02-23T07:03:52;97465.70;;;5.23;52.97
40372;BME280;28564;53.346;-6.554;2024-02-23T07:06:20;97464.71;;;5.30;52.91
40372;BME280;28564;53.346;-6.554;2024-02-23T07:08:47;97470.29;;;5.40;52.42
40372;BME280;28564;53.346;-6.554;2024-02-23T07:11:14;97467.17;;;5.33;51.98
40372;BME280;28564;53.346;-6.554;2024-02-23T07:13:43;97458.60;;;4.92;52.00
40372;BME280;28564;53.346;-6.554;2024-02-23T07:16:15;97463.28;;;5.10;51.82
40372;BME280;28564;53.346;-6.554;2024-02-23T07:18:43;97458.99;;;4.95;52.17
40372;BME280;28564;53.346;-6.554;2024-02-23T07:21:10;97458.05;;;5.39;52.07
40372;BME280;28564;53.346;-6.554;2024-02-23T07:23:38;97458.16;;;4.86;52.06
40372;BME280;28564;53.346;-6.554;2024-02-23T07:26:05;97459.85;;;5.01;52.30
40372;BME280;28564;53.346;-6.554;2024-02-23T07:28:32;97463.04;;;4.68;52.61
40372;BME280;28564;53.346;-6.554;2024-02-23T07:31:00;97462.49;;;5.20;52.66
40372;BME280;28564;53.346;-6.554;2024-02-23T07:33:27;97470.39;;;4.95;52.83
40372;BME280;28564;53.346;-6.554;2024-02-23T07:35:54;97477.23;;;5.28;52.38
40372;BME280;28564;53.346;-6.554;2024-02-23T07:38:22;97473.66;;;5.21;52.80
40372;BME280;28564;53.346;-6.554;2024-02-23T07:40:49;97473.92;;;4.74;52.56
40372;BME280;28564;53.346;-6.554;2024-02-23T07:43:16;97474.36;;;4.81;52.77
40372;BME280;28564;53.346;-6.554;2024-02-23T07:45:44;97474.56;;;4.83;52.54
40372;BME280;28564;53.346;-6.554;2024-02-23T07:48:11;97477.07;;;4.89;52.73
40372;BME280;28564;53.346;-6.554;2024-02-23T07:50:39;97474.33;;;4.97;52.64
40372;BME280;28564;53.346;-6.554;2024-02-23T07:53:06;97472.19;;;5.35;52.49
40372;BME280;28564;53.346;-6.554;2024-02-23T07:55:38;97472.63;;;5.16;52.19
40372;BME280;28564;53.346;-6.554;2024-02-23T07:58:06;97474.52;;;5.51;52.41
40372;BME280;28564;53.346;-6.554;2024-02-23T08:00:33;97476.25;;;5.36;52.11
40372;BME280;28564;53.346;-6.554;2024-02-23T08:03:01;97474.38;;;5.46;52.16
40372;BME280;28564;53.346;-6.554;2024-02-23T08:05:28;97481.89;;;5.48;52.15
40372;BME280;28564;53.346;-6.554;2024-02-23T08:07:56;97474.93;;;5.57;51.83
40372;BME280;28564;53.346;-6.554;2024-02-23T08:10:23;97479.36;;;5.54;51.82
40372;BME280;28564;53.346;-6.554;2024-02-23T08:12:50;97482.96;;;5.57;51.75
40372;BME280;28564;53.346;-6.554;2024-02-23T08:15:18;97487.92;;;5.62;51.99
40372;BME280;28564;53.346;-6.554;2024-02-23T08:17:45;97488.10;;;5.37;51.32
40372;BME280;28564;53.346;-6.554;2024-02-23T08:20:12;97489.53;;;5.55;51.30
40372;BME280;28564;53.346;-6.554;2024-02-23T08:22:40;97494.92;;;5.47;51.30
40372;BME280;28564;53.346;-6.554;2024-02-23T08:25:08;97498.26;;;5.18;51.38
40372;BME280;28564;53.346;-6.554;2024-02-23T08:27:34;97500.97;;;5.40;51.34
40372;BME280;28564;53.346;-6.554;2024-02-23T08:30:02;97502.04;;;5.31;51.42
40372;BME280;28564;53.346;-6.554;2024-02-23T08:32:29;97503.40;;;5.36;51.39
40372;BME280;28564;53.346;-6.554;2024-02-23T08:34:57;97509.99;;;5.34;51.44
40372;BME280;28564;53.346;-6.554;2024-02-23T08:37:24;97510.04;;;5.37;51.46
40372;BME280;28564;53.346;-6.554;2024-02-23T08:39:51;97508.26;;;5.36;51.47
40372;BME280;28564;53.346;-6.554;2024-02-23T08:42:19;97508.58;;;5.39;51.61
40372;BME280;28564;53.346;-6.554;2024-02-23T08:44:51;97506.95;;;5.50;51.67
40372;BME280;28564;53.346;-6.554;2024-02-23T08:47:19;97510.47;;;5.53;51.63
40372;BME280;28564;53.346;-6.554;2024-02-23T08:49:46;97512.16;;;5.32;51.62
40372;BME280;28564;53.346;-6.554;2024-02-23T08:52:13;97517.46;;;5.36;51.60
40372;BME280;28564;53.346;-6.554;2024-02-23T08:54:41;97524.50;;;5.40;51.55
40372;BME280;28564;53.346;-6.554;2024-02-23T08:57:08;97534.69;;;5.49;51.68
40372;BME280;28564;53.346;-6.554;2024-02-23T08:59:36;97540.98;;;5.83;51.62
40372;BME280;28564;53.346;-6.554;2024-02-23T09:02:03;97542.71;;;5.45;51.81
40372;BME280;28564;53.346;-6.554;2024-02-23T09:04:30;97547.60;;;6.10;51.78
40372;BME280;28564;53.346;-6.554;2024-02-23T09:06:58;97549.86;;;5.88;51.49
40372;BME280;28564;53.346;-6.554;2024-02-23T09:09:25;97555.41;;;6.07;51.12
40372;BME280;28564;53.346;-6.554;2024-02-23T09:11:53;97560.14;;;6.43;50.93
40372;BME280;28564;53.346;-6.554;2024-02-23T09:14:20;97558.92;;;6.60;50.68
40372;BME280;28564;53.346;-6.554;2024-02-23T09:16:47;97559.64;;;6.51;50.65
40372;BME280;28564;53.346;-6.554;2024-02-23T09:19:19;97557.33;;;6.67;50.63
40372;BME280;28564;53.346;-6.554;2024-02-23T09:21:47;97556.27;;;6.80;50.20
40372;BME280;28564;53.346;-6.554;2024-02-23T09:24:19;97557.81;;;6.94;50.04
40372;BME280;28564;53.346;-6.554;2024-02-23T09:26:47;97548.83;;;6.76;49.65
40372;BME280;28564;53.346;-6.554;2024-02-23T09:29:15;97543.56;;;6.85;49.76
40372;BME280;28564;53.346;-6.554;2024-02-23T09:31:48;97543.83;;;6.91;49.59
40372;BME280;28564;53.346;-6.554;2024-02-23T09:34:16;97544.78;;;6.76;48.97
40372;BME280;28564;53.346;-6.554;2024-02-23T09:36:43;97543.82;;;6.81;49.21
40372;BME280;28564;53.346;-6.554;2024-02-23T09:39:10;97546.30;;;6.82;49.00
40372;BME280;28564;53.346;-6.554;2024-02-23T09:41:39;97550.63;;;6.88;48.92
40372;BME280;28564;53.346;-6.554;2024-02-23T09:44:08;97548.51;;;7.22;48.81
40372;BME280;28564;53.346;-6.554;2024-02-23T09:46:36;97546.47;;;6.98;48.76
40372;BME280;28564;53.346;-6.554;2024-02-23T09:49:15;97549.99;;;7.34;48.73
40372;BME280;28564;53.346;-6.554;2024-02-23T09:51:42;97552.10;;;7.25;48.80
40372;BME280;28564;53.346;-6.554;2024-02-23T09:54:10;97548.66;;;7.44;48.13
40372;BME280;28564;53.346;-6.554;2024-02-23T09:56:43;97544.83;;;7.65;47.92
40372;BME280;28564;53.346;-6.554;2024-02-23T09:59:12;97551.94;;;7.77;47.58
40372;BME280;28564;53.346;-6.554;2024-02-23T10:03:54;97554.55;;;8.18;46.47
40372;BME280;28564;53.346;-6.554;2024-02-23T10:06:23;97557.16;;;7.97;46.31
40372;BME280;28564;53.346;-6.554;2024-02-23T10:08:50;97560.23;;;8.12;46.30
40372;BME280;28564;53.346;-6.554;2024-02-23T10:11:18;97567.24;;;8.21;46.31
40372;BME280;28564;53.346;-6.554;2024-02-23T10:13:47;97570.04;;;8.31;46.18
40372;BME280;28564;53.346;-6.554;2024-02-23T10:16:14;97577.22;;;8.32;46.06
40372;BME280;28564;53.346;-6.554;2024-02-23T10:18:42;97582.56;;;8.23;46.11
40372;BME280;28564;53.346;-6.554;2024-02-23T10:21:09;97581.63;;;8.31;46.83
40372;BME280;28564;53.346;-6.554;2024-02-23T10:23:36;97591.97;;;8.38;47.30
40372;BME280;28564;53.346;-6.554;2024-02-23T10:26:05;97587.34;;;8.80;46.59
40372;BME280;28564;53.346;-6.554;2024-02-23T10:28:33;97594.96;;;8.55;46.35
40372;BME280;28564;53.346;-6.554;2024-02-23T10:31:00;97597.65;;;8.83;46.19
40372;BME280;28564;53.346;-6.554;2024-02-23T10:33:27;97603.55;;;8.71;46.23
40372;BME280;28564;53.346;-6.554;2024-02-23T10:36:01;97604.24;;;8.58;46.21
40372;BME280;28564;53.346;-6.554;2024-02-23T10:38:32;97610.72;;;9.12;46.25
40372;BME280;28564;53.346;-6.554;2024-02-23T10:41:01;97610.04;;;9.31;45.55
40372;BME280;28564;53.346;-6.554;2024-02-23T10:43:38;97607.11;;;9.19;44.91
40372;BME280;28564;53.346;-6.554;2024-02-23T10:46:09;97615.29;;;9.44;44.34
40372;BME280;28564;53.346;-6.554;2024-02-23T10:48:38;97612.69;;;9.69;44.40
40372;BME280;28564;53.346;-6.554;2024-02-23T10:51:07;97617.09;;;9.87;44.39
40372;BME280;28564;53.346;-6.554;2024-02-23T10:53:36;97618.07;;;10.23;43.77
40372;BME280;28564;53.346;-6.554;2024-02-23T10:56:04;97613.36;;;9.97;43.75
40372;BME280;28564;53.346;-6.554;2024-02-23T10:58:32;97617.16;;;10.16;43.90
40372;BME280;28564;53.346;-6.554;2024-02-23T11:01:02;97617.80;;;9.71;43.53
40372;BME280;28564;53.346;-6.554;2024-02-23T11:03:30;97620.10;;;9.56;44.40
40372;BME280;28564;53.346;-6.554;2024-02-23T11:06:00;97620.62;;;9.40;44.44
40372;BME280;28564;53.346;-6.554;2024-02-23T11:08:28;97624.22;;;9.39;44.55
40372;BME280;28564;53.346;-6.554;2024-02-23T11:10:56;97628.42;;;9.60;44.26
40372;BME280;28564;53.346;-6.554;2024-02-23T11:13:30;97632.13;;;9.95;44.63
40372;BME280;28564;53.346;-6.554;2024-02-23T11:16:02;97628.01;;;10.15;43.75
40372;BME280;28564;53.346;-6.554;2024-02-23T11:18:31;97630.03;;;10.70;43.49
40372;BME280;28564;53.346;-6.554;2024-02-23T11:21:00;97634.61;;;10.15;43.37
40372;BME280;28564;53.346;-6.554;2024-02-23T11:23:40;97638.74;;;10.32;42.81
40372;BME280;28564;53.346;-6.554;2024-02-23T11:26:09;97646.61;;;10.05;43.30
40372;BME280;28564;53.346;-6.554;2024-02-23T11:28:48;97648.56;;;9.68;43.25
40372;BME280;28564;53.346;-6.554;2024-02-23T11:31:20;97650.76;;;9.76;43.54
40372;BME280;28564;53.346;-6.554;2024-02-23T11:33:48;97655.71;;;10.09;42.99
40372;BME280;28564;53.346;-6.554;2024-02-23T11:36:23;97649.81;;;9.75;43.26
40372;BME280;28564;53.346;-6.554;2024-02-23T11:38:53;97650.09;;;9.87;43.78
40372;BME280;28564;53.346;-6.554;2024-02-23T11:41:22;97654.64;;;9.71;44.14
40372;BME280;28564;53.346;-6.554;2024-02-23T11:43:56;97653.06;;;9.79;44.13
40372;BME280;28564;53.346;-6.554;2024-02-23T11:46:23;97655.76;;;9.80;44.27
40372;BME280;28564;53.346;-6.554;2024-02-23T11:48:50;97657.33;;;9.88;43.40
40372;BME280;28564;53.346;-6.554;2024-02-23T11:51:23;97654.11;;;10.11;43.67
40372;BME280;28564;53.346;-6.554;2024-02-23T11:53:51;97660.26;;;9.98;43.41
40372;BME280;28564;53.346;-6.554;2024-02-23T11:56:19;97657.34;;;10.54;42.72
40372;BME280;28564;53.346;-6.554;2024-02-23T11:58:47;97642.96;;;9.80;42.48
40372;BME280;28564;53.346;-6.554;2024-02-23T12:01:14;97646.24;;;10.18;41.65
40372;BME280;28564;53.346;-6.554;2024-02-23T12:03:41;97648.72;;;10.25;41.88
40372;BME280;28564;53.346;-6.554;2024-02-23T12:06:10;97640.54;;;9.93;41.78
40372;BME280;28564;53.346;-6.554;2024-02-23T12:08:37;97649.81;;;10.03;41.98
40372;BME280;28564;53.346;-6.554;2024-02-23T12:11:04;97649.37;;;9.82;41.96
40372;BME280;28564;53.346;-6.554;2024-02-23T12:13:32;97630.40;;;10.27;42.03
40372;BME280;28564;53.346;-6.554;2024-02-23T12:16:01;97622.99;;;10.36;41.76
40372;BME280;28564;53.346;-6.554;2024-02-23T12:18:28;97629.72;;;10.50;41.59
40372;BME280;28564;53.346;-6.554;2024-02-23T12:20:59;97628.44;;;10.71;41.30
40372;BME280;28564;53.346;-6.554;2024-02-23T12:23:39;97616.85;;;10.78;40.78
40372;BME280;28564;53.346;-6.554;2024-02-23T12:26:07;97620.42;;;10.82;40.12
40372;BME280;28564;53.346;-6.554;2024-02-23T12:28:35;97626.16;;;10.99;40.57
40372;BME280;28564;53.346;-6.554;2024-02-23T12:31:05;97622.51;;;11.04;40.28
40372;BME280;28564;53.346;-6.554;2024-02-23T12:33:33;97624.48;;;11.10;40.40
40372;BME280;28564;53.346;-6.554;2024-02-23T12:36:03;97622.27;;;10.73;40.50
40372;BME280;28564;53.346;-6.554;2024-02-23T12:38:31;97629.31;;;10.69;40.90
40372;BME280;28564;53.346;-6.554;2024-02-23T12:40:59;97628.20;;;10.69;40.56
40372;BME280;28564;53.346;-6.554;2024-02-23T12:43:27;97627.92;;;10.65;41.69
40372;BME280;28564;53.346;-6.554;2024-02-23T12:45:54;97633.26;;;10.49;43.10
40372;BME280;28564;53.346;-6.554;2024-02-23T12:48:23;97646.44;;;9.96;43.49
40372;BME280;28564;53.346;-6.554;2024-02-23T12:50:51;97618.86;;;9.38;43.93
40372;BME280;28564;53.346;-6.554;2024-02-23T12:53:32;97618.57;;;10.54;43.87
40372;BME280;28564;53.346;-6.554;2024-02-23T12:56:00;97622.85;;;11.81;41.24
40372;BME280;28564;53.346;-6.554;2024-02-23T12:58:27;97625.98;;;12.73;38.62
40372;BME280;28564;53.346;-6.554;2024-02-23T13:00:55;97637.15;;;13.22;37.57
40372;BME280;28564;53.346;-6.554;2024-02-23T13:03:23;97622.49;;;12.30;37.51
40372;BME280;28564;53.346;-6.554;2024-02-23T13:05:51;97628.45;;;13.45;37.44